sensor_id;sensor_type;location;lat;lon;timestamp;temperature;humidity
3051;DHT22;1535;51.098;6.414;2022-11-15T00:00:46;9.30;99.90
3051;DHT22;1535;51.098;6.414;2022-11-15T00:03:14;9.30;99.90
3051;DHT22;1535;51.098;6.414;2022-11-15T00:05:41;9.30;99.90
3051;DHT22;1535;51.098;6.414;2022-11-15T00:08:08;9.40;99.90
3051;DHT22;1535;51.098;6.414;2022-11-15T00:10:36;9.50;99.90
3051;DHT22;1535;51.098;6.414;2022-11-15T00:13:05;9.50;99.90
3051;DHT22;1535;51.098;6.414;2022-11-15T00:15:34;9.50;99.90
3051;DHT22;1535;51.098;6.414;2022-11-15T00:18:03;9.60;99.90
3051;DHT22;1535;51.098;6.414;2022-11-15T00:20:31;9.60;99.90
3051;DHT22;1535;51.098;6.414;2022-11-15T00:22:57;9.70;99.90
3051;DHT22;1535;51.098;6.414;2022-11-15T00:25:24;9.70;99.90
3051;DHT22;1535;51.098;6.414;2022-11-15T00:27:55;9.70;99.90
3051;DHT22;1535;51.098;6.414;2022-11-15T00:30:21;9.70;99.90
3051;DHT22;1535;51.098;6.414;2022-11-15T00:32:48;9.70;99.90
3051;DHT22;1535;51.098;6.414;2022-11-15T00:35:17;9.80;99.90
3051;DHT22;1535;51.098;6.414;2022-11-15T00:37:45;9.80;99.90
3051;DHT22;1535;51.098;6.414;2022-11-15T00:40:14;9.80;99.90
3051;DHT22;1535;51.098;6.414;2022-11-15T00:42:41;9.80;99.90
3051;DHT22;1535;51.098;6.414;2022-11-15T00:45:09;9.80;99.90
3051;DHT22;1535;51.098;6.414;2022-11-15T00:47:36;9.80;99.90
3051;DHT22;1535;51.098;6.414;2022-11-15T00:50:03;9.80;99.90
3051;DHT22;1535;51.098;6.414;2022-11-15T00:52:31;9.80;99.90
3051;DHT22;1535;51.098;6.414;2022-11-15T00:54:58;9.80;99.90
3051;DHT22;1535;51.098;6.414;2022-11-15T00:57:25;9.80;99.90
3051;DHT22;1535;51.098;6.414;2022-11-15T00:59:52;9.90;99.90
3051;DHT22;1535;51.098;6.414;2022-11-15T01:02:19;9.90;99.90
3051;DHT22;1535;51.098;6.414;2022-11-15T01:04:47;9.90;99.90
3051;DHT22;1535;51.098;6.414;2022-11-15T01:07:15;10.00;99.90
3051;DHT22;1535;51.098;6.414;2022-11-15T01:09:43;10.00;99.90
3051;DHT22;1535;51.098;6.414;2022-11-15T01:12:11;10.00;99.90
3051;DHT22;1535;51.098;6.414;2022-11-15T01:14:38;10.00;99.90
3051;DHT22;1535;51.098;6.414;2022-11-15T01:17:05;10.00;99.90
3051;DHT22;1535;51.098;6.414;2022-11-15T01:19:32;10.00;99.90
3051;DHT22;1535;51.098;6.414;2022-11-15T01:21:59;10.00;99.90
3051;DHT22;1535;51.098;6.414;2022-11-15T01:24:26;9.90;99.90
3051;DHT22;1535;51.098;6.414;2022-11-15T01:26:54;9.90;99.90
3051;DHT22;1535;51.098;6.414;2022-11-15T01:29:21;10.00;99.90
3051;DHT22;1535;51.098;6.414;2022-11-15T01:31:48;10.10;99.90
3051;DHT22;1535;51.098;6.414;2022-11-15T01:34:15;10.10;99.90
3051;DHT22;1535;51.098;6.414;2022-11-15T01:36:42;10.10;99.90
3051;DHT22;1535;51.098;6.414;2022-11-15T01:39:11;10.10;99.90
3051;DHT22;1535;51.098;6.414;2022-11-15T01:41:38;10.20;99.90
3051;DHT22;1535;51.098;6.414;2022-11-15T01:44:42;10.30;99.90
3051;DHT22;1535;51.098;6.414;2022-11-15T01:47:13;10.30;99.90
3051;DHT22;1535;51.098;6.414;2022-11-15T01:49:49;10.20;99.90
3051;DHT22;1535;51.098;6.414;2022-11-15T01:52:19;10.20;99.90
3051;DHT22;1535;51.098;6.414;2022-11-15T01:54:49;10.20;99.90
3051;DHT22;1535;51.098;6.414;2022-11-15T01:57:17;10.10;99.90
3051;DHT22;1535;51.098;6.414;2022-11-15T01:59:47;10.10;99.90
3051;DHT22;1535;51.098;6.414;2022-11-15T02:02:14;10.00;99.90
3051;DHT22;1535;51.098;6.414;2022-11-15T02:04:43;10.00;99.90
3051;DHT22;1535;51.098;6.414;2022-11-15T02:07:11;9.90;99.90
3051;DHT22;1535;51.098;6.414;2022-11-15T02:09:39;9.90;99.90
3051;DHT22;1535;51.098;6.414;2022-11-15T02:12:07;9.90;99.90
3051;DHT22;1535;51.098;6.414;2022-11-15T02:14:36;9.90;99.90
3051;DHT22;1535;51.098;6.414;2022-11-15T02:17:16;9.90;99.90
3051;DHT22;1535;51.098;6.414;2022-11-15T02:20:07;10.00;99.90
3051;DHT22;1535;51.098;6.414;2022-11-15T02:22:44;10.10;99.90
3051;DHT22;1535;51.098;6.414;2022-11-15T02:25:38;10.10;99.90
3051;DHT22;1535;51.098;6.414;2022-11-15T02:28:16;10.20;99.90
3051;DHT22;1535;51.098;6.414;2022-11-15T02:30:52;10.30;99.90
3051;DHT22;1535;51.098;6.414;2022-11-15T02:33:29;10.30;99.90
3051;DHT22;1535;51.098;6.414;2022-11-15T02:36:00;10.40;99.90
3051;DHT22;1535;51.098;6.414;2022-11-15T02:38:33;10.50;99.90
3051;DHT22;1535;51.098;6.414;2022-11-15T02:41:04;10.60;99.90
3051;DHT22;1535;51.098;6.414;2022-11-15T02:43:37;10.70;99.90
3051;DHT22;1535;51.098;6.414;2022-11-15T02:46:28;10.80;99.90
3051;DHT22;1535;51.098;6.414;2022-11-15T02:49:11;10.80;99.90
3051;DHT22;1535;51.098;6.414;2022-11-15T02:51:40;10.80;99.90
3051;DHT22;1535;51.098;6.414;2022-11-15T02:54:09;10.90;99.90
3051;DHT22;1535;51.098;6.414;2022-11-15T02:56:37;10.90;99.90
3051;DHT22;1535;51.098;6.414;2022-11-15T02:59:16;11.00;99.90
3051;DHT22;1535;51.098;6.414;2022-11-15T03:01:58;11.00;99.90
3051;DHT22;1535;51.098;6.414;2022-11-15T03:04:36;11.00;99.90
3051;DHT22;1535;51.098;6.414;2022-11-15T03:07:10;11.00;99.90
3051;DHT22;1535;51.098;6.414;2022-11-15T03:09:40;11.00;99.90
3051;DHT22;1535;51.098;6.414;2022-11-15T03:12:14;11.00;99.90
3051;DHT22;1535;51.098;6.414;2022-11-15T03:14:48;11.00;99.90
3051;DHT22;1535;51.098;6.414;2022-11-15T03:17:25;11.10;99.90
3051;DHT22;1535;51.098;6.414;2022-11-15T03:19:55;11.10;99.90
3051;DHT22;1535;51.098;6.414;2022-11-15T03:22:25;11.10;99.90
3051;DHT22;1535;51.098;6.414;2022-11-15T03:24:57;11.10;99.90
3051;DHT22;1535;51.098;6.414;2022-11-15T03:27:29;11.10;99.90
3051;DHT22;1535;51.098;6.414;2022-11-15T03:30:00;11.20;99.90
3051;DHT22;1535;51.098;6.414;2022-11-15T03:32:31;11.10;99.90
3051;DHT22;1535;51.098;6.414;2022-11-15T03:35:02;11.10;99.90
3051;DHT22;1535;51.098;6.414;2022-11-15T03:37:34;11.10;99.90
3051;DHT22;1535;51.098;6.414;2022-11-15T03:40:03;11.10;99.90
3051;DHT22;1535;51.098;6.414;2022-11-15T03:42:32;11.20;99.90
3051;DHT22;1535;51.098;6.414;2022-11-15T03:45:09;11.20;99.90
3051;DHT22;1535;51.098;6.414;2022-11-15T03:47:40;11.20;99.90
3051;DHT22;1535;51.098;6.414;2022-11-15T03:50:10;11.30;99.90
3051;DHT22;1535;51.098;6.414;2022-11-15T03:52:39;11.30;99.90
3051;DHT22;1535;51.098;6.414;2022-11-15T03:55:09;11.40;99.90
3051;DHT22;1535;51.098;6.414;2022-11-15T03:57:37;11.40;99.90
3051;DHT22;1535;51.098;6.414;2022-11-15T04:00:05;11.40;99.90
3051;DHT22;1535;51.098;6.414;2022-11-15T04:02:32;11.40;99.90
3051;DHT22;1535;51.098;6.414;2022-11-15T04:05:00;11.40;99.90
3051;DHT22;1535;51.098;6.414;2022-11-15T04:07:28;11.40;99.90
3051;DHT22;1535;51.098;6.414;2022-11-15T04:09:55;11.50;99.90
3051;DHT22;1535;51.098;6.414;2022-11-15T04:12:31;11.50;99.90
3051;DHT22;1535;51.098;6.414;2022-11-15T04:15:03;11.50;99.90
3051;DHT22;1535;51.098;6.414;2022-11-15T04:17:38;11.50;99.90
3051;DHT22;1535;51.098;6.414;2022-11-15T04:20:09;11.60;99.90
3051;DHT22;1535;51.098;6.414;2022-11-15T04:22:54;11.60;99.90
3051;DHT22;1535;51.098;6.414;2022-11-15T04:25:39;11.60;99.90
3051;DHT22;1535;51.098;6.414;2022-11-15T04:28:06;11.60;99.90
3051;DHT22;1535;51.098;6.414;2022-11-15T04:30:32;11.50;99.90
3051;DHT22;1535;51.098;6.414;2022-11-15T04:33:00;11.50;99.90
3051;DHT22;1535;51.098;6.414;2022-11-15T04:35:28;11.60;99.90
3051;DHT22;1535;51.098;6.414;2022-11-15T04:37:56;11.60;99.90
3051;DHT22;1535;51.098;6.414;2022-11-15T04:40:23;11.50;99.90
3051;DHT22;1535;51.098;6.414;2022-11-15T04:42:50;11.50;99.90
3051;DHT22;1535;51.098;6.414;2022-11-15T04:45:19;11.50;99.90
3051;DHT22;1535;51.098;6.414;2022-11-15T04:47:47;11.50;99.90
3051;DHT22;1535;51.098;6.414;2022-11-15T04:50:15;11.60;99.90
3051;DHT22;1535;51.098;6.414;2022-11-15T04:52:50;11.60;99.90
3051;DHT22;1535;51.098;6.414;2022-11-15T04:55:18;11.70;99.90
3051;DHT22;1535;51.098;6.414;2022-11-15T04:57:44;11.70;99.90
3051;DHT22;1535;51.098;6.414;2022-11-15T05:02:41;11.80;99.90
3051;DHT22;1535;51.098;6.414;2022-11-15T05:05:25;11.80;99.90
3051;DHT22;1535;51.098;6.414;2022-11-15T05:07:53;11.80;99.90
3051;DHT22;1535;51.098;6.414;2022-11-15T05:10:20;11.80;99.90
3051;DHT22;1535;51.098;6.414;2022-11-15T05:12:47;11.80;99.90
3051;DHT22;1535;51.098;6.414;2022-11-15T05:15:13;11.80;99.90
3051;DHT22;1535;51.098;6.414;2022-11-15T05:17:40;11.80;99.90
3051;DHT22;1535;51.098;6.414;2022-11-15T05:20:08;11.80;99.90
3051;DHT22;1535;51.098;6.414;2022-11-15T05:22:35;11.80;99.90
3051;DHT22;1535;51.098;6.414;2022-11-15T05:25:05;11.80;99.90
3051;DHT22;1535;51.098;6.414;2022-11-15T05:27:32;11.80;99.90
3051;DHT22;1535;51.098;6.414;2022-11-15T05:30:01;11.90;99.90
3051;DHT22;1535;51.098;6.414;2022-11-15T05:32:28;11.90;99.90
3051;DHT22;1535;51.098;6.414;2022-11-15T05:34:55;11.90;99.90
3051;DHT22;1535;51.098;6.414;2022-11-15T05:37:22;11.80;99.90
3051;DHT22;1535;51.098;6.414;2022-11-15T05:39:49;11.80;99.90
3051;DHT22;1535;51.098;6.414;2022-11-15T05:42:17;11.70;99.90
3051;DHT22;1535;51.098;6.414;2022-11-15T05:44:47;11.60;99.90
3051;DHT22;1535;51.098;6.414;2022-11-15T05:47:18;11.50;99.90
3051;DHT22;1535;51.098;6.414;2022-11-15T05:49:46;11.60;99.90
3051;DHT22;1535;51.098;6.414;2022-11-15T05:52:16;11.50;99.90
3051;DHT22;1535;51.098;6.414;2022-11-15T05:54:43;11.60;99.90
3051;DHT22;1535;51.098;6.414;2022-11-15T05:57:10;11.60;99.90
3051;DHT22;1535;51.098;6.414;2022-11-15T05:59:39;11.60;99.90
3051;DHT22;1535;51.098;6.414;2022-11-15T06:02:06;11.60;99.90
3051;DHT22;1535;51.098;6.414;2022-11-15T06:04:33;11.60;99.90
3051;DHT22;1535;51.098;6.414;2022-11-15T06:07:00;11.60;99.90
3051;DHT22;1535;51.098;6.414;2022-11-15T06:09:27;11.60;99.90
3051;DHT22;1535;51.098;6.414;2022-11-15T06:11:54;11.60;99.90
3051;DHT22;1535;51.098;6.414;2022-11-15T06:14:21;11.60;99.90
3051;DHT22;1535;51.098;6.414;2022-11-15T06:16:50;11.60;99.90
3051;DHT22;1535;51.098;6.414;2022-11-15T06:19:17;11.70;99.90
3051;DHT22;1535;51.098;6.414;2022-11-15T06:21:44;11.60;99.90
3051;DHT22;1535;51.098;6.414;2022-11-15T06:24:10;11.60;99.90
3051;DHT22;1535;51.098;6.414;2022-11-15T06:26:37;11.70;99.90
3051;DHT22;1535;51.098;6.414;2022-11-15T06:29:04;11.70;99.90
3051;DHT22;1535;51.098;6.414;2022-11-15T06:31:31;11.70;99.90
3051;DHT22;1535;51.098;6.414;2022-11-15T06:33:59;11.70;99.90
3051;DHT22;1535;51.098;6.414;2022-11-15T06:36:26;11.80;99.90
3051;DHT22;1535;51.098;6.414;2022-11-15T06:38:53;11.80;99.90
3051;DHT22;1535;51.098;6.414;2022-11-15T06:41:20;11.80;99.90
3051;DHT22;1535;51.098;6.414;2022-11-15T06:43:47;12.00;99.90
3051;DHT22;1535;51.098;6.414;2022-11-15T06:46:14;12.10;99.90
3051;DHT22;1535;51.098;6.414;2022-11-15T06:48:41;12.00;99.90
3051;DHT22;1535;51.098;6.414;2022-11-15T06:51:10;11.90;99.90
3051;DHT22;1535;51.098;6.414;2022-11-15T06:53:37;11.90;99.90
3051;DHT22;1535;51.098;6.414;2022-11-15T06:56:05;11.70;99.90
3051;DHT22;1535;51.098;6.414;2022-11-15T06:58:33;11.60;99.90
3051;DHT22;1535;51.098;6.414;2022-11-15T07:01:01;11.40;99.90
3051;DHT22;1535;51.098;6.414;2022-11-15T07:03:29;11.30;99.90
3051;DHT22;1535;51.098;6.414;2022-11-15T07:05:57;11.10;99.90
3051;DHT22;1535;51.098;6.414;2022-11-15T07:08:27;11.10;99.90
3051;DHT22;1535;51.098;6.414;2022-11-15T07:10:55;11.00;99.90
3051;DHT22;1535;51.098;6.414;2022-11-15T07:13:25;11.00;99.90
3051;DHT22;1535;51.098;6.414;2022-11-15T07:15:52;11.10;99.90
3051;DHT22;1535;51.098;6.414;2022-11-15T07:18:19;11.10;99.90
3051;DHT22;1535;51.098;6.414;2022-11-15T07:20:46;11.20;99.90
3051;DHT22;1535;51.098;6.414;2022-11-15T07:23:13;11.10;99.90
3051;DHT22;1535;51.098;6.414;2022-11-15T07:25:41;11.20;99.90
3051;DHT22;1535;51.098;6.414;2022-11-15T07:28:08;11.20;99.90
3051;DHT22;1535;51.098;6.414;2022-11-15T07:30:35;11.30;99.90
3051;DHT22;1535;51.098;6.414;2022-11-15T07:33:03;11.30;99.90
3051;DHT22;1535;51.098;6.414;2022-11-15T07:35:30;11.30;99.90
3051;DHT22;1535;51.098;6.414;2022-11-15T07:37:59;11.40;99.90
3051;DHT22;1535;51.098;6.414;2022-11-15T07:40:27;11.40;99.90
3051;DHT22;1535;51.098;6.414;2022-11-15T07:43:00;11.40;99.90
3051;DHT22;1535;51.098;6.414;2022-11-15T07:45:26;11.30;99.90
3051;DHT22;1535;51.098;6.414;2022-11-15T07:47:54;11.30;99.90
3051;DHT22;1535;51.098;6.414;2022-11-15T07:50:22;11.40;99.90
3051;DHT22;1535;51.098;6.414;2022-11-15T07:52:53;11.30;99.90
3051;DHT22;1535;51.098;6.414;2022-11-15T07:55:21;11.40;99.90
3051;DHT22;1535;51.098;6.414;2022-11-15T07:57:48;11.40;99.90
3051;DHT22;1535;51.098;6.414;2022-11-15T08:00:18;11.40;99.90
3051;DHT22;1535;51.098;6.414;2022-11-15T08:02:45;11.40;99.90
3051;DHT22;1535;51.098;6.414;2022-11-15T08:05:11;11.40;99.90
3051;DHT22;1535;51.098;6.414;2022-11-15T08:07:38;11.50;99.90
3051;DHT22;1535;51.098;6.414;2022-11-15T08:10:08;11.60;99.90
3051;DHT22;1535;51.098;6.414;2022-11-15T08:12:34;11.60;99.90
3051;DHT22;1535;51.098;6.414;2022-11-15T08:15:01;11.60;99.90
3051;DHT22;1535;51.098;6.414;2022-11-15T08:17:29;11.50;99.90
3051;DHT22;1535;51.098;6.414;2022-11-15T08:19:58;11.50;99.90
3051;DHT22;1535;51.098;6.414;2022-11-15T08:22:25;11.50;99.90
3051;DHT22;1535;51.098;6.414;2022-11-15T08:24:52;11.60;99.90
3051;DHT22;1535;51.098;6.414;2022-11-15T08:27:19;11.60;99.90
3051;DHT22;1535;51.098;6.414;2022-11-15T08:29:48;11.60;99.90
3051;DHT22;1535;51.098;6.414;2022-11-15T08:32:15;11.60;99.90
3051;DHT22;1535;51.098;6.414;2022-11-15T08:34:44;11.50;99.90
3051;DHT22;1535;51.098;6.414;2022-11-15T08:37:11;11.30;99.90
3051;DHT22;1535;51.098;6.414;2022-11-15T08:39:39;11.30;99.90
3051;DHT22;1535;51.098;6.414;2022-11-15T08:42:06;11.30;99.90
3051;DHT22;1535;51.098;6.414;2022-11-15T08:44:32;11.20;99.90
3051;DHT22;1535;51.098;6.414;2022-11-15T08:46:59;11.30;99.90
3051;DHT22;1535;51.098;6.414;2022-11-15T08:49:26;11.30;99.90
3051;DHT22;1535;51.098;6.414;2022-11-15T08:51:54;11.40;99.90
3051;DHT22;1535;51.098;6.414;2022-11-15T08:54:21;11.50;99.90
3051;DHT22;1535;51.098;6.414;2022-11-15T08:56:48;11.60;99.90
3051;DHT22;1535;51.098;6.414;2022-11-15T08:59:14;11.60;99.90
3051;DHT22;1535;51.098;6.414;2022-11-15T09:01:41;11.70;99.90
3051;DHT22;1535;51.098;6.414;2022-11-15T09:04:09;11.80;99.90
3051;DHT22;1535;51.098;6.414;2022-11-15T09:06:35;11.80;99.90
3051;DHT22;1535;51.098;6.414;2022-11-15T09:09:04;11.90;99.90
3051;DHT22;1535;51.098;6.414;2022-11-15T09:11:31;12.00;99.90
3051;DHT22;1535;51.098;6.414;2022-11-15T09:13:58;12.00;99.90
3051;DHT22;1535;51.098;6.414;2022-11-15T09:16:25;12.00;99.90
3051;DHT22;1535;51.098;6.414;2022-11-15T09:18:52;12.00;99.90
3051;DHT22;1535;51.098;6.414;2022-11-15T09:21:21;12.10;99.90
3051;DHT22;1535;51.098;6.414;2022-11-15T09:23:50;12.10;99.90
3051;DHT22;1535;51.098;6.414;2022-11-15T09:26:18;12.10;99.90
3051;DHT22;1535;51.098;6.414;2022-11-15T09:28:45;12.10;99.90
3051;DHT22;1535;51.098;6.414;2022-11-15T09:31:12;12.20;99.90
3051;DHT22;1535;51.098;6.414;2022-11-15T09:33:39;12.20;99.90
3051;DHT22;1535;51.098;6.414;2022-11-15T09:36:07;12.10;99.90
3051;DHT22;1535;51.098;6.414;2022-11-15T09:38:34;12.20;99.90
3051;DHT22;1535;51.098;6.414;2022-11-15T09:41:26;12.30;99.90
3051;DHT22;1535;51.098;6.414;2022-11-15T09:44:07;12.30;99.90
3051;DHT22;1535;51.098;6.414;2022-11-15T09:46:45;12.40;99.90
3051;DHT22;1535;51.098;6.414;2022-11-15T09:49:17;12.40;99.90
3051;DHT22;1535;51.098;6.414;2022-11-15T09:51:45;12.40;99.90
3051;DHT22;1535;51.098;6.414;2022-11-15T09:54:23;12.40;99.90
3051;DHT22;1535;51.098;6.414;2022-11-15T09:56:56;12.40;99.90
3051;DHT22;1535;51.098;6.414;2022-11-15T09:59:43;12.40;99.90
3051;DHT22;1535;51.098;6.414;2022-11-15T10:02:27;12.40;99.90
3051;DHT22;1535;51.098;6.414;2022-11-15T10:04:58;12.40;99.90
3051;DHT22;1535;51.098;6.414;2022-11-15T10:07:28;12.40;99.90
3051;DHT22;1535;51.098;6.414;2022-11-15T10:10:02;12.40;99.90
3051;DHT22;1535;51.098;6.414;2022-11-15T10:12:32;12.50;99.90
3051;DHT22;1535;51.098;6.414;2022-11-15T10:15:02;12.50;99.90
3051;DHT22;1535;51.098;6.414;2022-11-15T10:17:51;12.60;99.90
3051;DHT22;1535;51.098;6.414;2022-11-15T10:20:24;12.60;99.90
3051;DHT22;1535;51.098;6.414;2022-11-15T10:22:54;12.60;99.90
3051;DHT22;1535;51.098;6.414;2022-11-15T10:25:24;12.60;99.90
3051;DHT22;1535;51.098;6.414;2022-11-15T10:27:57;12.70;99.90
3051;DHT22;1535;51.098;6.414;2022-11-15T10:30:32;12.70;99.90
3051;DHT22;1535;51.098;6.414;2022-11-15T10:33:10;12.80;99.90
3051;DHT22;1535;51.098;6.414;2022-11-15T10:35:38;12.80;99.90
3051;DHT22;1535;51.098;6.414;2022-11-15T10:38:06;12.90;99.90
3051;DHT22;1535;51.098;6.414;2022-11-15T10:40:34;13.20;99.90
3051;DHT22;1535;51.098;6.414;2022-11-15T10:43:14;13.60;99.90
3051;DHT22;1535;51.098;6.414;2022-11-15T10:45:41;14.00;99.90
3051;DHT22;1535;51.098;6.414;2022-11-15T10:48:26;14.40;99.90
3051;DHT22;1535;51.098;6.414;2022-11-15T10:50:54;15.20;99.90
3051;DHT22;1535;51.098;6.414;2022-11-15T10:53:25;15.60;99.90
3051;DHT22;1535;51.098;6.414;2022-11-15T10:55:55;16.00;99.90
3051;DHT22;1535;51.098;6.414;2022-11-15T10:58:31;16.20;99.90
3051;DHT22;1535;51.098;6.414;2022-11-15T11:01:09;16.30;99.90
3051;DHT22;1535;51.098;6.414;2022-11-15T11:03:38;16.40;99.90
3051;DHT22;1535;51.098;6.414;2022-11-15T11:06:08;16.50;99.90
3051;DHT22;1535;51.098;6.414;2022-11-15T11:08:36;16.60;99.90
3051;DHT22;1535;51.098;6.414;2022-11-15T11:11:04;16.40;99.90
3051;DHT22;1535;51.098;6.414;2022-11-15T11:13:34;16.20;99.90
3051;DHT22;1535;51.098;6.414;2022-11-15T11:19:04;15.80;99.90
3051;DHT22;1535;51.098;6.414;2022-11-15T11:21:43;16.00;99.90
3051;DHT22;1535;51.098;6.414;2022-11-15T11:24:18;15.90;99.90
3051;DHT22;1535;51.098;6.414;2022-11-15T11:26:59;15.80;99.90
3051;DHT22;1535;51.098;6.414;2022-11-15T11:29:41;15.70;99.90
3051;DHT22;1535;51.098;6.414;2022-11-15T11:32:23;15.70;99.90
3051;DHT22;1535;51.098;6.414;2022-11-15T11:34:58;15.80;99.90
3051;DHT22;1535;51.098;6.414;2022-11-15T11:37:35;15.90;99.90
3051;DHT22;1535;51.098;6.414;2022-11-15T11:40:13;15.90;99.90
3051;DHT22;1535;51.098;6.414;2022-11-15T11:42:47;16.00;99.90
3051;DHT22;1535;51.098;6.414;2022-11-15T11:45:44;16.10;99.90
3051;DHT22;1535;51.098;6.414;2022-11-15T11:48:23;16.00;99.90
3051;DHT22;1535;51.098;6.414;2022-11-15T11:50:58;16.10;99.90
3051;DHT22;1535;51.098;6.414;2022-11-15T11:53:30;15.80;99.90
3051;DHT22;1535;51.098;6.414;2022-11-15T11:56:01;15.70;99.90
3051;DHT22;1535;51.098;6.414;2022-11-15T11:58:34;15.70;99.90
3051;DHT22;1535;51.098;6.414;2022-11-15T12:01:14;15.70;99.90
3051;DHT22;1535;51.098;6.414;2022-11-15T12:03:47;15.90;99.90
3051;DHT22;1535;51.098;6.414;2022-11-15T12:06:21;16.00;99.90
3051;DHT22;1535;51.098;6.414;2022-11-15T12:08:53;16.50;99.90
3051;DHT22;1535;51.098;6.414;2022-11-15T12:11:23;17.10;99.90
3051;DHT22;1535;51.098;6.414;2022-11-15T12:13:56;17.20;99.90
3051;DHT22;1535;51.098;6.414;2022-11-15T12:16:27;17.30;99.90
3051;DHT22;1535;51.098;6.414;2022-11-15T12:18:58;16.90;99.90
3051;DHT22;1535;51.098;6.414;2022-11-15T12:21:34;16.60;99.90
3051;DHT22;1535;51.098;6.414;2022-11-15T12:24:04;16.70;99.90
3051;DHT22;1535;51.098;6.414;2022-11-15T12:26:36;17.00;99.90
3051;DHT22;1535;51.098;6.414;2022-11-15T12:29:08;17.70;99.90
3051;DHT22;1535;51.098;6.414;2022-11-15T12:31:40;17.80;99.90
3051;DHT22;1535;51.098;6.414;2022-11-15T12:34:40;17.50;99.90
3051;DHT22;1535;51.098;6.414;2022-11-15T12:37:34;17.30;99.90
3051;DHT22;1535;51.098;6.414;2022-11-15T12:40:18;16.90;99.90
3051;DHT22;1535;51.098;6.414;2022-11-15T12:42:58;16.40;99.90
3051;DHT22;1535;51.098;6.414;2022-11-15T12:45:28;16.20;99.90
3051;DHT22;1535;51.098;6.414;2022-11-15T12:51:03;16.00;99.90
3051;DHT22;1535;51.098;6.414;2022-11-15T12:53:32;16.10;99.90
3051;DHT22;1535;51.098;6.414;2022-11-15T12:56:19;16.10;99.90
3051;DHT22;1535;51.098;6.414;2022-11-15T12:58:48;15.90;99.90
3051;DHT22;1535;51.098;6.414;2022-11-15T13:01:56;15.90;99.90
3051;DHT22;1535;51.098;6.414;2022-11-15T13:04:27;15.80;99.90
3051;DHT22;1535;51.098;6.414;2022-11-15T13:06:56;16.10;99.90
3051;DHT22;1535;51.098;6.414;2022-11-15T13:09:53;16.50;99.90
3051;DHT22;1535;51.098;6.414;2022-11-15T13:12:52;16.60;99.90
3051;DHT22;1535;51.098;6.414;2022-11-15T13:18:34;16.10;99.90
3051;DHT22;1535;51.098;6.414;2022-11-15T13:21:04;15.60;99.90
3051;DHT22;1535;51.098;6.414;2022-11-15T13:23:52;15.40;99.90
3051;DHT22;1535;51.098;6.414;2022-11-15T13:26:19;15.40;99.90
3051;DHT22;1535;51.098;6.414;2022-11-15T13:28:49;15.30;99.90
3051;DHT22;1535;51.098;6.414;2022-11-15T13:31:36;15.30;99.90
3051;DHT22;1535;51.098;6.414;2022-11-15T13:34:26;15.40;99.90
3051;DHT22;1535;51.098;6.414;2022-11-15T13:36:55;15.40;99.90
3051;DHT22;1535;51.098;6.414;2022-11-15T13:39:27;15.40;99.90
3051;DHT22;1535;51.098;6.414;2022-11-15T13:41:55;15.50;99.90
3051;DHT22;1535;51.098;6.414;2022-11-15T13:44:24;15.50;99.90
3051;DHT22;1535;51.098;6.414;2022-11-15T13:47:03;15.40;99.90
3051;DHT22;1535;51.098;6.414;2022-11-15T13:49:31;15.30;99.90
3051;DHT22;1535;51.098;6.414;2022-11-15T13:52:01;15.30;99.90
3051;DHT22;1535;51.098;6.414;2022-11-15T13:54:30;15.30;99.90
3051;DHT22;1535;51.098;6.414;2022-11-15T13:57:02;15.30;99.90
3051;DHT22;1535;51.098;6.414;2022-11-15T13:59:31;15.30;99.90
3051;DHT22;1535;51.098;6.414;2022-11-15T14:02:02;15.50;99.90
3051;DHT22;1535;51.098;6.414;2022-11-15T14:04:30;15.30;99.90
3051;DHT22;1535;51.098;6.414;2022-11-15T14:07:01;15.20;99.90
3051;DHT22;1535;51.098;6.414;2022-11-15T14:09:34;15.10;99.90
3051;DHT22;1535;51.098;6.414;2022-11-15T14:14:46;15.10;99.90
3051;DHT22;1535;51.098;6.414;2022-11-15T14:17:20;15.00;99.90
3051;DHT22;1535;51.098;6.414;2022-11-15T14:19:49;15.00;99.90
3051;DHT22;1535;51.098;6.414;2022-11-15T14:22:20;15.00;99.90
3051;DHT22;1535;51.098;6.414;2022-11-15T14:25:05;15.00;99.90
3051;DHT22;1535;51.098;6.414;2022-11-15T14:27:33;14.90;99.90
3051;DHT22;1535;51.098;6.414;2022-11-15T14:30:00;14.90;99.90
3051;DHT22;1535;51.098;6.414;2022-11-15T14:32:29;14.90;99.90
3051;DHT22;1535;51.098;6.414;2022-11-15T14:34:57;14.90;99.90
3051;DHT22;1535;51.098;6.414;2022-11-15T14:37:27;14.90;99.90
3051;DHT22;1535;51.098;6.414;2022-11-15T14:39:54;14.80;99.90
3051;DHT22;1535;51.098;6.414;2022-11-15T14:42:24;14.90;99.90
3051;DHT22;1535;51.098;6.414;2022-11-15T14:44:51;14.80;99.90
3051;DHT22;1535;51.098;6.414;2022-11-15T14:47:18;14.80;99.90
3051;DHT22;1535;51.098;6.414;2022-11-15T14:49:46;14.80;99.90
3051;DHT22;1535;51.098;6.414;2022-11-15T14:52:27;14.60;99.90
3051;DHT22;1535;51.098;6.414;2022-11-15T14:54:55;14.60;99.90
3051;DHT22;1535;51.098;6.414;2022-11-15T14:57:23;14.60;99.90
3051;DHT22;1535;51.098;6.414;2022-11-15T14:59:50;14.60;99.90
3051;DHT22;1535;51.098;6.414;2022-11-15T15:02:19;14.50;99.90
3051;DHT22;1535;51.098;6.414;2022-11-15T15:04:47;14.40;99.90
3051;DHT22;1535;51.098;6.414;2022-11-15T15:07:14;14.30;99.90
3051;DHT22;1535;51.098;6.414;2022-11-15T15:09:42;14.30;99.90
3051;DHT22;1535;51.098;6.414;2022-11-15T15:12:15;14.20;99.90
3051;DHT22;1535;51.098;6.414;2022-11-15T15:14:42;14.20;99.90
3051;DHT22;1535;51.098;6.414;2022-11-15T15:17:10;14.20;99.90
3051;DHT22;1535;51.098;6.414;2022-11-15T15:19:37;14.20;99.90
3051;DHT22;1535;51.098;6.414;2022-11-15T15:22:05;14.10;99.90
3051;DHT22;1535;51.098;6.414;2022-11-15T15:24:32;14.10;99.90
3051;DHT22;1535;51.098;6.414;2022-11-15T15:27:00;14.00;99.90
3051;DHT22;1535;51.098;6.414;2022-11-15T15:29:29;14.00;99.90
3051;DHT22;1535;51.098;6.414;2022-11-15T15:31:56;13.90;99.90
3051;DHT22;1535;51.098;6.414;2022-11-15T15:34:23;13.90;99.90
3051;DHT22;1535;51.098;6.414;2022-11-15T15:37:06;13.80;99.90
3051;DHT22;1535;51.098;6.414;2022-11-15T15:39:34;13.70;99.90
3051;DHT22;1535;51.098;6.414;2022-11-15T15:42:03;13.80;99.90
3051;DHT22;1535;51.098;6.414;2022-11-15T15:44:30;13.80;99.90
3051;DHT22;1535;51.098;6.414;2022-11-15T15:46:57;13.80;99.90
3051;DHT22;1535;51.098;6.414;2022-11-15T15:49:25;13.80;99.90
3051;DHT22;1535;51.098;6.414;2022-11-15T15:51:52;13.80;99.90
3051;DHT22;1535;51.098;6.414;2022-11-15T15:54:18;13.80;99.90
3051;DHT22;1535;51.098;6.414;2022-11-15T15:56:46;13.70;99.90
3051;DHT22;1535;51.098;6.414;2022-11-15T15:59:14;13.80;99.90
3051;DHT22;1535;51.098;6.414;2022-11-15T16:01:41;13.70;99.90
3051;DHT22;1535;51.098;6.414;2022-11-15T16:04:08;13.70;99.90
3051;DHT22;1535;51.098;6.414;2022-11-15T16:06:37;13.70;99.90
3051;DHT22;1535;51.098;6.414;2022-11-15T16:09:05;13.60;99.90
3051;DHT22;1535;51.098;6.414;2022-11-15T16:11:32;13.60;99.90
3051;DHT22;1535;51.098;6.414;2022-11-15T16:14:00;13.50;99.90
3051;DHT22;1535;51.098;6.414;2022-11-15T16:16:28;13.50;99.90
3051;DHT22;1535;51.098;6.414;2022-11-15T16:18:55;13.50;99.90
3051;DHT22;1535;51.098;6.414;2022-11-15T16:21:21;13.50;99.90
3051;DHT22;1535;51.098;6.414;2022-11-15T16:23:49;13.50;99.90
3051;DHT22;1535;51.098;6.414;2022-11-15T16:26:20;13.50;99.90
3051;DHT22;1535;51.098;6.414;2022-11-15T16:28:48;13.40;99.90
3051;DHT22;1535;51.098;6.414;2022-11-15T16:31:15;13.40;99.90
3051;DHT22;1535;51.098;6.414;2022-11-15T16:33:45;13.40;99.90
3051;DHT22;1535;51.098;6.414;2022-11-15T16:36:22;13.50;99.90
3051;DHT22;1535;51.098;6.414;2022-11-15T16:38:49;13.50;99.90